createdAt,value
2023-03-02T00:02:01.712Z,102077.41
2023-03-02T00:07:07.771Z,102002.47
2023-03-02T00:12:10.973Z,102111.44
2023-03-02T00:17:18.114Z,102119.75
2023-03-02T00:22:20.990Z,101961.50
2023-03-02T00:27:24.575Z,101972.38
2023-03-02T00:32:28.738Z,102115.88
2023-03-02T00:37:31.747Z,102023.63
2023-03-02T00:42:35.134Z,102096.16
2023-03-02T00:47:40.611Z,102109.25
2023-03-02T00:52:44.181Z,101897.88
2023-03-02T00:57:54.734Z,102046.06
2023-03-02T01:03:03.823Z,102050.91
2023-03-02T01:08:06.873Z,102075.78
2023-03-02T01:13:09.563Z,102106.22
2023-03-02T01:18:13.909Z,102024.81
2023-03-02T01:23:18.247Z,102080.91
2023-03-02T01:28:20.886Z,102065.53
2023-03-02T01:33:28.316Z,101979.88
2023-03-02T01:38:31.109Z,102076.69
2023-03-02T01:43:35.056Z,102075.13
2023-03-02T01:48:45.975Z,102032.84
2023-03-02T01:53:56.886Z,102068.22
2023-03-02T01:59:05.690Z,102058.66
2023-03-02T02:04:10.660Z,102064.66
2023-03-02T02:09:16.521Z,102059.50
2023-03-02T02:14:19.493Z,101954.34
2023-03-02T02:19:36.654Z,102047.50
2023-03-02T02:24:45.102Z,101952.63
2023-03-02T02:29:52.744Z,102032.84
2023-03-02T02:35:02.410Z,102030.16
2023-03-02T02:40:13.235Z,101971.38
2023-03-02T02:45:23.557Z,102012.78
2023-03-02T02:50:30.818Z,101990.47
2023-03-02T02:55:36.397Z,102024.06
2023-03-02T03:00:40.585Z,101934.34
2023-03-02T03:05:43.632Z,101956.00
2023-03-02T03:10:46.877Z,102026.09
2023-03-02T03:15:51.538Z,102035.88
2023-03-02T03:20:54.238Z,102041.03
2023-03-02T03:25:57.137Z,101950.34
2023-03-02T03:31:01.548Z,102046.22
2023-03-02T03:36:05.273Z,101965.13
2023-03-02T03:41:08.388Z,101983.47
2023-03-02T03:46:12.746Z,102036.72
2023-03-02T03:51:17.812Z,101816.63
2023-03-02T04:01:43.740Z,101962.63
2023-03-02T04:06:46.991Z,102037.53
2023-03-02T04:11:52.012Z,101990.22
2023-03-02T04:16:57.636Z,102018.75
2023-03-02T04:22:03.936Z,102034.28
2023-03-02T04:27:07.634Z,102002.41
2023-03-02T04:32:15.393Z,101695.09
2023-03-02T04:37:21.719Z,102006.59
2023-03-02T04:42:25.251Z,102022.22
2023-03-02T04:47:30.590Z,102057.97
2023-03-02T04:52:33.743Z,102020.38
2023-03-02T04:57:38.861Z,101891.59
2023-03-02T05:02:43.110Z,101998.72
2023-03-02T05:07:48.616Z,102032.56
2023-03-02T05:13:02.247Z,102004.00
2023-03-02T05:18:08.014Z,101939.31
2023-03-02T05:23:25.551Z,101834.06
2023-03-02T05:28:32.364Z,101797.81
2023-03-02T05:33:37.583Z,102024.13
2023-03-02T05:38:40.468Z,102021.47
2023-03-02T05:43:43.810Z,101790.31
2023-03-02T05:48:50.726Z,102009.41
2023-03-02T05:53:53.696Z,101759.19
2023-03-02T05:58:56.492Z,102011.84
2023-03-02T06:04:00.704Z,102013.75
2023-03-02T06:09:04.116Z,101959.53
2023-03-02T06:14:07.043Z,102019.91
2023-03-02T06:19:11.532Z,101985.38
2023-03-02T06:24:18.416Z,102025.91
2023-03-02T06:29:21.716Z,101979.38
2023-03-02T06:34:25.952Z,102034.72
2023-03-02T06:39:28.667Z,102033.81
2023-03-02T06:44:31.522Z,102033.88
2023-03-02T06:49:35.956Z,101952.53
2023-03-02T06:54:38.804Z,102030.41
2023-03-02T06:59:41.831Z,102019.25
2023-03-02T07:04:45.854Z,102025.84
2023-03-02T07:09:51.472Z,102033.41
2023-03-02T07:14:57.043Z,102031.47
2023-03-02T07:20:01.004Z,101933.81
2023-03-02T08:02:08.925Z,102025.13
2023-03-02T08:07:12.026Z,101968.06
2023-03-02T08:12:21.380Z,102069.78
2023-03-02T08:17:25.377Z,102061.50
2023-03-02T08:22:29.932Z,102057.13
2023-03-02T08:27:32.613Z,101947.31
2023-03-02T08:32:36.670Z,102016.06
2023-03-02T08:37:39.390Z,102034.81
2023-03-02T08:42:44.675Z,101995.59
2023-03-02T08:47:48.725Z,101998.78
2023-03-02T08:52:51.530Z,102040.78
2023-03-02T08:57:54.316Z,101981.88
2023-03-02T09:02:58.595Z,102035.88
2023-03-02T09:08:01.375Z,102038.97
2023-03-02T09:13:06.787Z,102037.72
2023-03-02T09:18:12.372Z,102033.13
2023-03-02T09:23:16.022Z,101792.50
2023-03-02T09:28:19.004Z,101984.00
2023-03-02T09:33:23.024Z,102017.69
2023-03-02T09:38:26.043Z,101992.66
2023-03-02T09:43:42.349Z,102028.75
2023-03-02T09:48:58.264Z,102013.69
2023-03-02T09:54:08.734Z,102007.41
2023-03-02T09:59:22.188Z,101978.78
2023-03-02T10:04:30.040Z,102012.16
2023-03-02T10:09:33.056Z,102011.22
2023-03-02T10:14:43.893Z,102004.91
2023-03-02T10:19:57.154Z,101953.97
2023-03-02T10:25:15.400Z,101928.75
2023-03-02T10:30:22.785Z,101998.00
2023-03-02T10:35:28.358Z,101994.34
2023-03-02T10:40:42.598Z,101990.50
2023-03-02T10:45:46.365Z,101895.47
2023-03-02T10:50:54.802Z,101906.50
2023-03-02T10:55:57.559Z,101993.03
2023-03-02T11:01:04.299Z,101991.97
2023-03-02T11:06:20.855Z,101994.34
2023-03-02T11:11:27.768Z,101928.75
2023-03-02T11:16:35.996Z,101958.00
2023-03-02T11:21:49.456Z,101987.66
2023-03-02T11:26:56.706Z,101911.56
2023-03-02T11:32:05.037Z,101726.44
2023-03-02T11:37:19.447Z,101969.22
2023-03-02T11:42:32.042Z,101967.06
2023-03-02T11:48:58.776Z,101816.06
2023-03-02T11:54:02.950Z,101889.16
2023-03-02T11:59:18.454Z,101876.06
2023-03-02T12:04:32.363Z,101726.56
2023-03-02T12:09:41.255Z,101649.63
2023-03-02T12:14:44.618Z,101860.91
2023-03-02T12:19:51.687Z,101942.34
2023-03-02T12:25:03.744Z,101918.84
2023-03-02T12:30:14.256Z,101940.22
2023-03-02T12:35:19.718Z,101922.22
2023-03-02T12:40:38.466Z,101913.69
2023-03-02T12:45:50.631Z,101910.06
2023-03-02T12:51:00.636Z,101909.75
2023-03-02T12:56:05.570Z,101872.78
2023-03-02T13:01:08.340Z,101886.28
2023-03-02T13:06:15.972Z,101810.72
2023-03-02T13:11:26.824Z,101804.50
2023-03-02T13:16:33.356Z,101759.03
2023-03-02T13:21:39.302Z,101869.41
2023-03-02T13:26:43.459Z,101821.09
2023-03-02T13:31:46.837Z,101749.72
2023-03-02T13:36:51.217Z,101822.28
2023-03-02T13:41:58.576Z,101861.81
2023-03-02T13:47:02.044Z,101820.31
2023-03-02T13:52:20.628Z,101853.47
2023-03-02T13:57:31.277Z,101799.53
2023-03-02T14:02:33.906Z,101818.44
2023-03-02T14:07:36.645Z,101644.31
2023-03-02T14:12:46.462Z,101788.59
2023-03-02T14:17:52.235Z,101834.50
2023-03-02T14:22:58.106Z,101754.69
2023-03-02T14:28:02.176Z,101761.72
2023-03-02T14:33:10.678Z,101792.50
2023-03-02T14:38:15.722Z,101649.75
2023-03-02T14:43:21.218Z,101770.59
2023-03-02T14:48:24.120Z,101802.94
2023-03-02T14:53:30.629Z,101735.63
2023-03-02T14:58:37.012Z,101784.72
2023-03-02T15:03:40.146Z,101709.41
2023-03-02T15:08:49.334Z,101719.34
2023-03-02T15:13:56.080Z,101764.75
2023-03-02T15:18:59.114Z,101771.00
2023-03-02T15:24:03.936Z,101803.97
2023-03-02T15:29:08.867Z,101803.25
2023-03-02T15:34:12.504Z,101745.66
2023-03-02T15:39:16.669Z,101795.56
2023-03-02T15:44:24.051Z,101775.44
2023-03-02T15:49:29.417Z,101794.69
2023-03-02T15:54:34.090Z,101561.16
2023-03-02T15:59:39.896Z,101794.00
2023-03-02T16:04:46.552Z,101798.78
2023-03-02T16:09:51.127Z,101720.63
2023-03-02T16:15:01.941Z,101779.13
2023-03-02T16:20:05.276Z,101608.34
2023-03-02T16:25:08.737Z,101597.91
2023-03-02T16:30:15.171Z,101742.28
2023-03-02T16:35:18.036Z,101623.78
2023-03-02T16:40:25.747Z,101594.88
2023-03-02T16:45:34.142Z,101815.28
2023-03-02T16:50:37.143Z,101814.91
2023-03-02T16:55:40.611Z,101817.81
2023-03-02T17:00:48.088Z,101746.81
2023-03-02T17:05:51.379Z,101822.97
2023-03-02T17:10:54.109Z,101669.88
2023-03-02T17:15:59.661Z,101812.66
2023-03-02T17:21:05.926Z,101852.78
2023-03-02T17:26:09.472Z,101792.06
2023-03-02T17:31:13.703Z,101857.22
2023-03-02T17:36:16.532Z,101868.44
2023-03-02T17:41:22.638Z,101867.53
2023-03-02T17:46:27.495Z,101825.97
2023-03-02T17:51:30.347Z,101895.34
2023-03-02T17:56:33.114Z,101890.75
2023-03-02T18:01:37.302Z,101821.75
2023-03-02T18:06:42.928Z,101812.59
2023-03-02T18:11:46.350Z,101928.03
2023-03-02T18:16:55.834Z,101858.56
2023-03-02T18:22:00.252Z,101883.84
2023-03-02T18:27:03.219Z,101951.25
2023-03-02T18:38:11.688Z,101699.09
2023-03-02T18:43:17.574Z,101597.44
2023-03-02T18:48:21.893Z,101481.53
2023-03-02T18:53:27.039Z,101724.84
2023-03-02T18:58:33.987Z,101980.25
2023-03-02T19:03:38.741Z,101984.13
2023-03-02T19:08:43.079Z,101916.06
2023-03-02T19:13:45.962Z,101987.56
2023-03-02T19:18:50.088Z,101959.81
2023-03-02T19:23:57.684Z,101953.41
2023-03-02T19:29:00.410Z,101878.50
2023-03-02T19:34:04.012Z,102010.59
2023-03-02T19:39:08.629Z,101984.25
2023-03-02T19:44:14.123Z,101898.94
2023-03-02T19:49:17.079Z,102010.50
2023-03-02T19:54:21.560Z,101751.72
2023-03-02T19:59:25.758Z,101869.31
2023-03-02T20:04:33.956Z,102008.53
2023-03-02T20:09:42.209Z,101957.72
2023-03-02T20:14:49.422Z,101850.25
2023-03-02T20:19:52.714Z,101930.00
2023-03-02T20:24:56.973Z,102024.00
2023-03-02T20:30:00.012Z,102019.94
2023-03-02T20:35:05.193Z,102035.50
2023-03-02T20:40:11.737Z,102070.72
2023-03-02T20:45:15.079Z,101832.94
2023-03-02T20:50:21.882Z,102040.66
2023-03-02T20:55:26.811Z,101818.34
2023-03-02T21:00:31.685Z,101736.53
2023-03-02T21:05:38.063Z,101945.53
2023-03-02T21:10:44.905Z,101968.13
2023-03-02T21:15:52.091Z,102032.31
2023-03-02T21:20:58.137Z,101822.94
2023-03-02T21:26:11.048Z,102045.19
2023-03-02T21:31:23.286Z,101800.59
2023-03-02T21:36:29.583Z,101948.31
2023-03-02T21:41:40.302Z,101511.03
2023-03-02T21:46:45.991Z,102022.56
2023-03-02T21:51:50.799Z,101982.28
2023-03-02T21:57:00.950Z,102000.28
2023-03-02T22:02:06.714Z,102027.84
2023-03-02T22:07:09.942Z,101990.69
2023-03-02T22:12:23.755Z,101817.94
2023-03-02T22:17:26.803Z,102025.00
2023-03-02T22:22:31.977Z,102032.16
2023-03-02T22:28:22.590Z,102035.00
2023-03-02T22:33:37.860Z,101830.41
2023-03-02T22:38:40.631Z,102041.38
2023-03-02T22:43:52.953Z,101772.72
2023-03-02T22:48:56.456Z,102040.22
2023-03-02T22:54:20.892Z,102041.91
2023-03-02T22:59:27.120Z,102035.66
2023-03-02T23:04:42.245Z,102061.84
2023-03-02T23:09:45.085Z,102045.31
2023-03-02T23:14:51.969Z,101964.16
2023-03-02T23:19:54.756Z,102047.81
2023-03-02T23:24:58.106Z,102043.59
2023-03-02T23:30:02.782Z,101881.44
2023-03-02T23:35:06.152Z,102048.59
2023-03-02T23:40:10.130Z,102042.00
2023-03-02T23:45:15.123Z,102019.44
2023-03-02T23:50:17.931Z,102058.06
2023-03-02T23:55:20.989Z,102060.78
